Main page
METAR-TAF:

METAR-TAF

Airports :

Presidente Castro Pinto International Airport

João Pessoa, Paraíba, Brazil

latitude: 07-06S, longitude: 034-52W, elevation: 7 m

Current weather observation

The report was made 1 hour and 29 minutes ago, at 13:00 UTC
Wind 12 kt from the East
Temperature 31°C
Humidity 55%
Pressure 1014 hPa
Visibility 10 km or more
Broken clouds at a height of 3000 ft

METAR: SBJP 141300Z 09012KT 9999 BKN030 31/21 Q1014

Time: 12:29 (14:29 UTC)

Forecast

The report was made 4 hours and 29 minutes ago, at 10:00 UTC
Forecast valid from 14 at 12 UTC to 15 at 12 UTC
Wind 14 kt from the East/Southeast
Visibility 10 km or more
Broken clouds at a height of 3000 ft
Becoming
from 14 at 21 UTC to 14 at 22 UTC
Wind 7 kt from the Southeast
Scattered clouds at a height of 2000 ft

TAF: SBJP 141000Z 1412/1512 11014KT 9999 BKN030 TX31/1415Z TN23/1507Z BECMG 1421/1422 14007KT SCT020 RMK PCN

Weather observations and forecasts of more than 4000 airports (METAR and TAF reports).

The available stations are represented by yellow and red dots on the map.

Hover mouse over dot to see the name of the station.

Then click to see weather observations and forecasts.

To change the map : click on the green buttons with a black cross to zoom in, on the green button with a dash to zoom out, or on the green arrows for adjacent maps.


METAR-TAF: